createdAt,value
2017-12-24T07:09:18.435Z,80.00
2017-12-24T07:11:45.888Z,80.10
2017-12-24T07:14:13.324Z,80.00
2017-12-24T07:16:42.443Z,79.20
2017-12-24T07:19:09.891Z,79.20
2017-12-24T07:21:37.778Z,79.20
2017-12-24T07:24:05.218Z,79.60
2017-12-24T07:26:32.667Z,79.70
2017-12-24T07:42:43.938Z,79.00
2017-12-24T07:45:11.388Z,79.00
2017-12-24T07:47:38.822Z,78.50
2017-12-24T07:50:07.039Z,79.00
2017-12-24T07:52:34.478Z,78.90
2017-12-24T07:55:01.924Z,78.30
2017-12-24T07:57:29.367Z,78.40
2017-12-24T07:59:56.808Z,78.30
2017-12-24T08:02:25.019Z,77.70
2017-12-24T08:04:52.455Z,77.70
2017-12-24T08:07:19.890Z,78.00
2017-12-24T08:09:48.118Z,79.10
2017-12-24T08:12:15.562Z,78.40
2017-12-24T08:14:42.995Z,77.50
2017-12-24T08:17:10.434Z,77.10
2017-12-24T08:19:38.649Z,76.90
2017-12-24T08:22:06.107Z,76.80
2017-12-24T08:24:33.534Z,77.30
2017-12-24T08:27:00.978Z,77.20
2017-12-24T08:29:29.223Z,77.00
2017-12-24T08:31:56.680Z,77.00
2017-12-24T08:34:24.115Z,76.40
2017-12-24T08:36:51.554Z,76.80
2017-12-24T08:39:19.006Z,76.90
2017-12-24T08:41:46.680Z,76.70
2017-12-24T08:44:14.127Z,75.90
2017-12-24T08:46:41.571Z,76.00
2017-12-24T08:49:09.014Z,75.90
2017-12-24T08:51:37.226Z,75.60
2017-12-24T08:54:04.670Z,75.60
2017-12-24T08:56:32.126Z,75.60
2017-12-24T08:58:59.566Z,75.10
2017-12-24T09:01:27.031Z,74.90
2017-12-24T09:03:54.542Z,76.30
2017-12-24T09:06:21.976Z,75.40
2017-12-24T09:08:49.422Z,75.80
2017-12-24T09:11:16.863Z,76.10
2017-12-24T09:13:44.318Z,76.30
2017-12-24T09:16:11.763Z,76.30
2017-12-24T09:18:39.203Z,77.00
2017-12-24T09:21:06.638Z,76.50
2017-12-24T09:23:34.083Z,76.80
2017-12-24T09:26:01.520Z,76.10
2017-12-24T09:28:28.987Z,76.00
2017-12-24T09:30:56.462Z,75.60
2017-12-24T09:33:23.898Z,75.50
2017-12-24T09:35:51.334Z,74.80
2017-12-24T09:38:18.781Z,75.90
2017-12-24T09:40:46.338Z,74.80
2017-12-24T09:43:13.804Z,74.50
2017-12-24T09:45:41.352Z,74.10
2017-12-24T09:48:08.803Z,74.60
2017-12-24T09:50:36.263Z,75.00
2017-12-24T09:53:03.718Z,74.70
2017-12-24T09:55:31.150Z,74.30
2017-12-24T09:57:58.594Z,74.60
2017-12-24T10:00:26.803Z,74.30
2017-12-24T10:02:54.247Z,74.30
2017-12-24T10:05:21.675Z,74.20
2017-12-24T10:07:49.891Z,73.40
2017-12-24T10:10:17.336Z,73.40
2017-12-24T10:12:44.779Z,74.00
2017-12-24T10:15:12.288Z,73.10
2017-12-24T10:17:39.747Z,72.70
2017-12-24T10:20:07.186Z,73.10
2017-12-24T10:22:34.627Z,72.70
2017-12-24T10:25:02.079Z,72.90
2017-12-24T10:27:29.548Z,72.30
2017-12-24T10:29:56.990Z,71.70
2017-12-24T10:32:24.435Z,73.00
2017-12-24T10:34:51.878Z,71.70
2017-12-24T10:37:20.779Z,71.60
2017-12-24T10:39:48.219Z,71.50
2017-12-24T10:42:16.427Z,72.90
2017-12-24T10:44:43.961Z,72.90
2017-12-24T10:47:12.154Z,70.50
2017-12-24T10:49:39.610Z,70.50
2017-12-24T10:52:07.042Z,71.20
2017-12-24T10:54:34.478Z,71.50
2017-12-24T10:57:02.697Z,71.00
2017-12-24T10:59:30.193Z,70.80
2017-12-24T11:01:57.644Z,70.90
2017-12-24T11:04:25.098Z,71.70
2017-12-24T11:06:52.535Z,71.30
2017-12-24T11:09:19.979Z,71.00
2017-12-24T11:11:47.413Z,70.70
2017-12-24T11:14:14.850Z,70.50
2017-12-24T11:16:43.059Z,69.50
2017-12-24T11:19:10.499Z,69.40
2017-12-24T11:21:37.944Z,69.10
2017-12-24T11:24:06.166Z,69.20
2017-12-24T11:26:33.595Z,69.20
2017-12-24T11:29:01.083Z,68.40
2017-12-24T11:31:28.518Z,68.80
2017-12-24T11:33:56.006Z,69.00
2017-12-24T11:36:23.492Z,69.90
2017-12-24T11:38:51.713Z,68.40
2017-12-24T11:41:19.159Z,68.40
2017-12-24T11:43:46.599Z,69.20
2017-12-24T11:46:14.048Z,69.70
2017-12-24T11:48:41.480Z,70.00
2017-12-24T11:51:08.922Z,70.90
2017-12-24T11:53:36.370Z,69.80
2017-12-24T11:56:03.828Z,69.10
2017-12-24T11:58:31.259Z,69.60
2017-12-24T12:00:58.702Z,70.30
2017-12-24T12:03:26.152Z,70.70
2017-12-24T12:05:53.591Z,71.20
2017-12-24T12:08:21.022Z,70.30
2017-12-24T12:10:48.462Z,70.80
2017-12-24T12:13:15.903Z,70.60
2017-12-24T12:15:43.346Z,71.00
2017-12-24T12:18:10.791Z,71.20
2017-12-24T12:20:38.229Z,71.90
2017-12-24T12:23:05.667Z,71.50
2017-12-24T12:25:33.879Z,72.60
2017-12-24T12:28:01.327Z,72.50
2017-12-24T12:30:28.769Z,72.00
2017-12-24T12:32:56.204Z,71.80
2017-12-24T12:35:24.421Z,72.30
2017-12-24T12:37:51.846Z,72.30
2017-12-24T12:40:19.290Z,72.40
2017-12-24T12:42:47.780Z,73.60
2017-12-24T12:45:15.236Z,73.60
2017-12-24T12:47:43.464Z,74.00
2017-12-24T12:50:10.899Z,73.90
2017-12-24T12:52:38.356Z,73.70
2017-12-24T12:55:05.805Z,74.50
2017-12-24T12:57:33.264Z,75.30
2017-12-24T13:00:00.708Z,75.30
2017-12-24T13:02:28.147Z,74.50
2017-12-24T13:04:56.359Z,74.90
2017-12-24T13:07:23.802Z,74.90
2017-12-24T13:09:51.237Z,75.30
2017-12-24T13:12:18.695Z,75.80
2017-12-24T13:14:46.161Z,75.50
2017-12-24T13:17:13.622Z,75.00
2017-12-24T13:19:41.108Z,75.60
2017-12-24T13:22:08.555Z,75.40
2017-12-24T13:24:36.061Z,75.30
2017-12-24T13:27:03.522Z,75.20
2017-12-24T13:29:31.750Z,75.20
2017-12-24T13:31:59.255Z,75.20
2017-12-24T13:34:27.458Z,75.20
2017-12-24T13:36:54.919Z,75.20
2017-12-24T13:39:22.353Z,75.20
2017-12-24T13:41:49.786Z,75.60
2017-12-24T13:44:17.998Z,75.80
2017-12-24T13:46:45.453Z,75.70
2017-12-24T13:49:12.886Z,75.30
2017-12-24T13:51:41.112Z,75.90
2017-12-24T13:54:08.547Z,75.90
2017-12-24T13:56:36.315Z,75.70
2017-12-24T13:59:03.767Z,75.30
2017-12-24T14:01:31.186Z,75.30
2017-12-24T14:03:59.395Z,75.80
2017-12-24T14:06:26.831Z,75.80
2017-12-24T14:08:54.652Z,75.80
2017-12-24T14:11:22.183Z,75.60
2017-12-24T14:13:49.626Z,75.90
2017-12-24T14:16:17.067Z,75.70
2017-12-24T14:18:44.515Z,76.00
2017-12-24T14:21:11.948Z,76.00
2017-12-24T14:23:39.390Z,76.10
2017-12-24T14:26:06.830Z,76.50
2017-12-24T14:28:34.282Z,76.00
2017-12-24T14:31:01.726Z,76.00
2017-12-24T14:33:29.182Z,76.00
2017-12-24T14:35:56.624Z,76.10
2017-12-24T14:38:24.067Z,75.70
2017-12-24T14:40:51.510Z,76.40
2017-12-24T14:43:18.957Z,76.00
2017-12-24T14:45:47.165Z,76.10
2017-12-24T14:48:14.609Z,76.10
2017-12-24T14:50:42.051Z,76.50
2017-12-24T14:53:10.251Z,76.40
2017-12-24T14:55:37.681Z,76.30
2017-12-24T14:58:05.122Z,76.70
2017-12-24T15:00:33.339Z,76.80
2017-12-24T15:03:00.776Z,76.80
2017-12-24T15:05:28.202Z,76.50
2017-12-24T15:07:55.647Z,76.40
2017-12-24T15:10:23.086Z,77.20
2017-12-24T15:12:50.527Z,76.80
2017-12-24T15:15:17.971Z,76.70
2017-12-24T15:17:45.406Z,77.00
2017-12-24T15:20:12.853Z,76.80
2017-12-24T15:22:41.055Z,76.80
2017-12-24T15:25:08.494Z,76.80
2017-12-24T15:27:35.930Z,77.00
2017-12-24T15:30:04.143Z,76.50
2017-12-24T15:32:31.582Z,76.40
2017-12-24T15:34:59.031Z,76.60
2017-12-24T15:37:26.469Z,77.00
2017-12-24T15:39:54.689Z,78.00
2017-12-24T15:42:22.123Z,77.40
2017-12-24T15:44:49.563Z,77.70
2017-12-24T15:47:17.764Z,78.10
2017-12-24T15:49:45.203Z,78.10
2017-12-24T15:52:12.639Z,78.60
2017-12-24T15:54:40.849Z,78.70
2017-12-24T15:57:08.288Z,78.70
2017-12-24T15:59:36.495Z,79.00
2017-12-24T16:02:03.934Z,79.00
2017-12-24T16:04:31.374Z,78.70
2017-12-24T16:06:58.837Z,79.10
2017-12-24T16:09:26.238Z,79.40
2017-12-24T16:11:53.666Z,79.60
2017-12-24T16:14:21.114Z,79.00
2017-12-24T16:16:48.547Z,79.40
2017-12-24T16:19:15.983Z,79.50
2017-12-24T16:21:44.198Z,79.40
2017-12-24T16:24:11.654Z,79.20
2017-12-24T16:26:39.099Z,78.30
2017-12-24T16:29:06.565Z,78.30
2017-12-24T16:31:33.987Z,78.50
2017-12-24T16:34:02.196Z,78.10
2017-12-24T16:36:29.655Z,78.10
2017-12-24T16:38:57.095Z,78.60
2017-12-24T16:41:24.530Z,78.10
2017-12-24T16:43:52.736Z,78.30
2017-12-24T16:46:20.177Z,78.30
2017-12-24T16:48:47.608Z,78.30
2017-12-24T16:51:15.042Z,78.60
2017-12-24T16:53:42.475Z,78.70
2017-12-24T16:56:09.929Z,79.10
2017-12-24T16:58:37.370Z,79.60
2017-12-24T17:01:04.810Z,79.60
2017-12-24T17:03:32.242Z,79.50
2017-12-24T17:05:59.686Z,78.60
2017-12-24T17:08:27.119Z,78.30
2017-12-24T17:10:54.562Z,78.40
2017-12-24T17:13:22.003Z,77.80
2017-12-24T17:15:49.446Z,78.00
2017-12-24T17:18:16.878Z,77.80
2017-12-24T17:20:45.097Z,76.30
2017-12-24T17:23:12.518Z,76.20
2017-12-24T17:25:39.959Z,76.10
2017-12-24T17:28:08.159Z,76.60
2017-12-24T17:30:35.605Z,76.50
2017-12-24T17:33:03.802Z,76.60
2017-12-24T17:35:31.230Z,76.50
2017-12-24T17:37:59.443Z,76.80
2017-12-24T17:40:26.886Z,76.80
2017-12-24T17:42:54.326Z,77.20
2017-12-24T17:45:21.767Z,77.10
2017-12-24T17:47:49.972Z,77.70
2017-12-24T17:50:17.407Z,77.60
2017-12-24T17:52:44.847Z,77.30
2017-12-24T17:55:13.059Z,78.10
2017-12-24T17:57:40.502Z,78.10
2017-12-24T18:00:07.935Z,77.90
2017-12-24T18:02:36.144Z,77.80
2017-12-24T18:05:03.574Z,77.60
2017-12-24T18:07:31.012Z,77.40
2017-12-24T18:09:58.442Z,78.10
2017-12-24T18:12:25.878Z,77.90
2017-12-24T18:14:53.320Z,78.20
2017-12-24T18:17:20.779Z,78.40
2017-12-24T18:19:48.210Z,78.10
2017-12-24T18:22:15.654Z,77.90
2017-12-24T18:24:43.862Z,77.80
2017-12-24T18:27:11.302Z,77.70
2017-12-24T18:29:38.734Z,78.00
2017-12-24T18:32:06.946Z,78.40
2017-12-24T18:34:34.403Z,78.30
2017-12-24T18:37:01.834Z,77.70
2017-12-24T18:39:29.271Z,77.70
2017-12-24T18:41:56.711Z,77.70
2017-12-24T18:44:24.146Z,78.40
2017-12-24T18:46:51.590Z,77.70
2017-12-24T18:49:19.035Z,77.30
2017-12-24T18:51:46.476Z,77.60
2017-12-24T18:54:13.910Z,77.30
2017-12-24T18:56:42.161Z,77.60
2017-12-24T18:59:09.594Z,77.60
2017-12-24T19:01:37.036Z,77.20
2017-12-24T19:04:04.470Z,76.90
2017-12-24T19:06:31.907Z,76.90
2017-12-24T19:08:59.346Z,77.20
2017-12-24T19:11:26.795Z,77.20
2017-12-24T19:13:54.241Z,77.40
2017-12-24T19:16:21.683Z,76.70
2017-12-24T19:18:49.126Z,76.70
2017-12-24T19:21:16.554Z,76.10
2017-12-24T19:23:44.048Z,76.10
2017-12-24T19:26:11.496Z,76.30
2017-12-24T19:28:38.985Z,76.20
2017-12-24T19:31:06.478Z,76.20
2017-12-24T19:33:33.972Z,76.70
2017-12-24T19:36:01.402Z,76.50
2017-12-24T19:38:28.842Z,76.70
2017-12-24T19:40:57.047Z,76.10
2017-12-24T19:43:24.492Z,76.10
2017-12-24T19:45:51.927Z,75.50
2017-12-24T19:48:20.146Z,76.00
2017-12-24T19:50:47.587Z,76.00
2017-12-24T19:53:15.027Z,75.70
2017-12-24T19:55:42.529Z,76.00
2017-12-24T19:58:10.044Z,76.40
2017-12-24T20:00:37.521Z,76.00
2017-12-24T20:03:04.991Z,76.50
2017-12-24T20:05:32.427Z,76.60
2017-12-24T20:07:59.862Z,76.90
2017-12-24T20:10:27.354Z,77.00
2017-12-24T20:12:54.834Z,77.70
2017-12-24T20:15:22.312Z,77.30
2017-12-24T20:17:49.785Z,77.10
2017-12-24T20:20:18.033Z,76.40
2017-12-24T20:22:45.513Z,76.30
2017-12-24T20:25:13.752Z,76.60
2017-12-24T20:27:41.225Z,76.50
2017-12-24T20:30:08.696Z,76.20
2017-12-24T20:32:36.950Z,76.60
2017-12-24T20:35:04.482Z,76.40
2017-12-24T20:37:31.977Z,76.80
2017-12-24T20:39:59.484Z,76.30
2017-12-24T20:42:26.988Z,76.40
2017-12-24T20:44:54.422Z,76.20
2017-12-24T20:47:21.908Z,77.70
2017-12-24T20:49:49.432Z,77.10
2017-12-24T20:52:16.896Z,77.10
2017-12-24T20:54:44.351Z,76.80
2017-12-24T20:57:11.917Z,77.10
2017-12-24T20:59:39.580Z,77.50
2017-12-24T21:02:07.063Z,77.30
2017-12-24T21:04:34.582Z,77.30
2017-12-24T21:07:02.113Z,77.60
2017-12-24T21:09:29.617Z,78.20
2017-12-24T21:11:57.710Z,77.90
2017-12-24T21:14:25.992Z,78.40
2017-12-24T21:16:54.241Z,78.40
2017-12-24T21:19:21.674Z,78.40
2017-12-24T21:21:49.198Z,78.10
2017-12-24T21:24:16.698Z,78.10
2017-12-24T21:26:44.269Z,78.10
2017-12-24T21:29:12.630Z,78.00
2017-12-24T21:31:40.121Z,78.40
2017-12-24T21:34:08.388Z,78.00
2017-12-24T21:36:35.866Z,77.90
2017-12-24T21:39:03.404Z,78.30
2017-12-24T21:41:31.943Z,78.20
2017-12-24T21:43:59.483Z,78.10
2017-12-24T21:46:27.378Z,78.00
2017-12-24T21:48:54.917Z,78.50
2017-12-24T21:51:22.438Z,77.80
2017-12-24T21:53:49.953Z,78.50
2017-12-24T21:56:17.457Z,78.10
2017-12-24T21:58:44.986Z,77.30
2017-12-24T22:01:12.472Z,78.00
2017-12-24T22:03:39.986Z,77.50
2017-12-24T22:06:07.511Z,77.40
2017-12-24T22:08:34.933Z,77.10
2017-12-24T22:11:02.418Z,77.60
2017-12-24T22:13:29.886Z,77.20
2017-12-24T22:15:57.374Z,77.60
2017-12-24T22:18:24.859Z,78.30
2017-12-24T22:20:53.101Z,78.20
2017-12-24T22:23:20.527Z,78.20
2017-12-24T22:25:47.957Z,77.90
2017-12-24T22:28:15.479Z,78.00
2017-12-24T22:30:42.957Z,78.00
2017-12-24T22:33:11.208Z,78.00
2017-12-24T22:35:38.684Z,78.00
2017-12-24T22:38:06.115Z,77.50
2017-12-24T22:40:33.550Z,78.20
2017-12-24T22:43:01.041Z,77.50
2017-12-24T22:45:28.511Z,78.10
2017-12-24T22:47:56.764Z,78.80
2017-12-24T22:50:24.196Z,78.70
2017-12-24T22:52:51.644Z,76.90
2017-12-24T22:55:19.098Z,77.10
2017-12-24T22:57:46.586Z,77.30
2017-12-24T23:00:14.060Z,76.10
2017-12-24T23:02:41.530Z,76.10
2017-12-24T23:05:09.772Z,75.80
2017-12-24T23:07:37.197Z,75.70
2017-12-24T23:10:04.672Z,75.80
2017-12-24T23:12:32.148Z,76.20
2017-12-24T23:14:59.579Z,76.40
2017-12-24T23:17:27.060Z,76.40
2017-12-24T23:19:54.497Z,76.50
2017-12-24T23:22:21.947Z,76.40
2017-12-24T23:24:49.434Z,76.60
2017-12-24T23:27:16.904Z,76.70
2017-12-24T23:29:45.901Z,76.60
2017-12-24T23:32:14.135Z,77.00
2017-12-24T23:34:41.621Z,76.90
2017-12-24T23:37:09.863Z,76.80
2017-12-24T23:39:37.336Z,76.70
2017-12-24T23:42:04.808Z,76.90
2017-12-24T23:44:32.281Z,77.50
2017-12-24T23:47:00.515Z,77.40
2017-12-24T23:49:27.988Z,77.40
2017-12-24T23:51:55.431Z,77.60
2017-12-24T23:54:22.917Z,76.60
2017-12-24T23:56:51.151Z,77.20
2017-12-24T23:59:18.591Z,77.10
